sensor_id;sensor_type;location;lat;lon;timestamp;pressure;altitude;pressure_sealevel;temperature;humidity
52777;BME280;38656;54.260;20.822;2023-03-03T00:01:11;101207.75;;;12.72;67.29
52777;BME280;38656;54.260;20.822;2023-03-03T00:03:37;101208.25;;;13.22;59.10
52777;BME280;38656;54.260;20.822;2023-03-03T00:06:04;101206.78;;;12.62;61.84
52777;BME280;38656;54.260;20.822;2023-03-03T00:08:31;101216.09;;;12.32;58.82
52777;BME280;38656;54.260;20.822;2023-03-03T00:11:00;101216.25;;;12.42;60.62
52777;BME280;38656;54.260;20.822;2023-03-03T00:13:28;101218.16;;;12.98;58.57
52777;BME280;38656;54.260;20.822;2023-03-03T00:18:46;101200.69;;;13.73;58.66
52777;BME280;38656;54.260;20.822;2023-03-03T00:21:34;101204.44;;;14.14;57.54
52777;BME280;38656;54.260;20.822;2023-03-03T00:26:39;101199.09;;;13.04;59.20
52777;BME280;38656;54.260;20.822;2023-03-03T00:34:46;101184.44;;;12.30;62.56
52777;BME280;38656;54.260;20.822;2023-03-03T00:37:38;101185.09;;;11.85;65.90
52777;BME280;38656;54.260;20.822;2023-03-03T00:40:34;101186.75;;;12.35;66.74
52777;BME280;38656;54.260;20.822;2023-03-03T00:43:11;101186.91;;;12.09;63.60
52777;BME280;38656;54.260;20.822;2023-03-03T00:45:46;101185.28;;;11.34;65.92
52777;BME280;38656;54.260;20.822;2023-03-03T00:51:25;101188.97;;;11.68;63.25
52777;BME280;38656;54.260;20.822;2023-03-03T00:53:52;101170.31;;;12.99;59.11
52777;BME280;38656;54.260;20.822;2023-03-03T00:56:19;101188.03;;;11.94;65.71
52777;BME280;38656;54.260;20.822;2023-03-03T00:58:45;101170.66;;;13.06;60.61
52777;BME280;38656;54.260;20.822;2023-03-03T01:01:13;101169.19;;;12.45;63.31
52777;BME280;38656;54.260;20.822;2023-03-03T01:03:40;101177.25;;;12.08;62.87
52777;BME280;38656;54.260;20.822;2023-03-03T01:06:06;101169.56;;;13.08;60.00
52777;BME280;38656;54.260;20.822;2023-03-03T01:08:33;101163.78;;;13.70;58.09
52777;BME280;38656;54.260;20.822;2023-03-03T01:11:05;101159.81;;;13.09;57.82
52777;BME280;38656;54.260;20.822;2023-03-03T01:13:34;101156.56;;;12.71;59.62
52777;BME280;38656;54.260;20.822;2023-03-03T01:16:01;101157.91;;;11.59;64.58
52777;BME280;38656;54.260;20.822;2023-03-03T01:18:29;101145.09;;;12.48;64.47
52777;BME280;38656;54.260;20.822;2023-03-03T01:20:56;101150.69;;;11.61;60.81
52777;BME280;38656;54.260;20.822;2023-03-03T01:23:22;101153.44;;;11.84;64.85
52777;BME280;38656;54.260;20.822;2023-03-03T01:25:48;101141.94;;;11.24;66.69
52777;BME280;38656;54.260;20.822;2023-03-03T01:28:14;101129.22;;;12.48;63.89
52777;BME280;38656;54.260;20.822;2023-03-03T01:30:40;101136.56;;;11.49;67.41
52777;BME280;38656;54.260;20.822;2023-03-03T01:33:07;101125.53;;;12.15;63.18
52777;BME280;38656;54.260;20.822;2023-03-03T01:35:33;101137.00;;;10.43;70.92
52777;BME280;38656;54.260;20.822;2023-03-03T01:38:01;101137.69;;;11.34;66.41
52777;BME280;38656;54.260;20.822;2023-03-03T01:40:29;101113.03;;;12.17;67.13
52777;BME280;38656;54.260;20.822;2023-03-03T01:42:58;101118.88;;;12.68;60.45
52777;BME280;38656;54.260;20.822;2023-03-03T01:45:29;101123.97;;;11.77;64.79
52777;BME280;38656;54.260;20.822;2023-03-03T01:48:05;101130.69;;;11.33;64.88
52777;BME280;38656;54.260;20.822;2023-03-03T01:53:45;101128.28;;;11.78;62.95
52777;BME280;38656;54.260;20.822;2023-03-03T01:56:09;101128.47;;;13.03;62.18
52777;BME280;38656;54.260;20.822;2023-03-03T01:58:52;101116.78;;;11.66;62.59
52777;BME280;38656;54.260;20.822;2023-03-03T02:01:22;101128.63;;;11.98;62.08
52777;BME280;38656;54.260;20.822;2023-03-03T02:03:50;101116.69;;;12.84;58.01
52777;BME280;38656;54.260;20.822;2023-03-03T02:06:21;101130.81;;;11.56;66.05
52777;BME280;38656;54.260;20.822;2023-03-03T02:11:37;101113.66;;;11.61;64.19
52777;BME280;38656;54.260;20.822;2023-03-03T02:14:05;101110.66;;;11.66;66.70
52777;BME280;38656;54.260;20.822;2023-03-03T02:16:31;101092.94;;;11.91;64.86
52777;BME280;38656;54.260;20.822;2023-03-03T02:18:58;101094.22;;;13.66;58.13
52777;BME280;38656;54.260;20.822;2023-03-03T02:21:25;101084.84;;;12.05;62.57
52777;BME280;38656;54.260;20.822;2023-03-03T02:24:09;101090.53;;;11.52;65.05
52777;BME280;38656;54.260;20.822;2023-03-03T02:26:40;101085.56;;;12.07;64.66
52777;BME280;38656;54.260;20.822;2023-03-03T02:29:08;101078.94;;;11.18;69.67
52777;BME280;38656;54.260;20.822;2023-03-03T02:31:35;101076.94;;;12.16;66.19
52777;BME280;38656;54.260;20.822;2023-03-03T02:34:04;101080.06;;;11.86;66.68
52777;BME280;38656;54.260;20.822;2023-03-03T02:36:33;101075.00;;;12.18;64.97
52777;BME280;38656;54.260;20.822;2023-03-03T02:39:21;101072.34;;;11.72;65.33
52777;BME280;38656;54.260;20.822;2023-03-03T02:44:19;101081.47;;;12.03;65.30
52777;BME280;38656;54.260;20.822;2023-03-03T02:46:47;101081.25;;;12.06;61.70
52777;BME280;38656;54.260;20.822;2023-03-03T02:49:17;101069.84;;;11.22;66.52
52777;BME280;38656;54.260;20.822;2023-03-03T02:51:44;101078.84;;;10.82;67.75
52777;BME280;38656;54.260;20.822;2023-03-03T02:54:11;101073.06;;;11.38;70.22
52777;BME280;38656;54.260;20.822;2023-03-03T02:56:38;101059.69;;;11.64;65.82
52777;BME280;38656;54.260;20.822;2023-03-03T02:59:05;101056.09;;;12.12;66.09
52777;BME280;38656;54.260;20.822;2023-03-03T03:01:32;101063.44;;;11.37;65.89
52777;BME280;38656;54.260;20.822;2023-03-03T03:04:10;101086.06;;;12.91;59.29
52777;BME280;38656;54.260;20.822;2023-03-03T03:06:37;101080.88;;;13.77;57.01
52777;BME280;38656;54.260;20.822;2023-03-03T03:09:04;101077.31;;;12.46;62.11
52777;BME280;38656;54.260;20.822;2023-03-03T03:11:31;101074.53;;;12.70;59.66
52777;BME280;38656;54.260;20.822;2023-03-03T03:13:58;101071.06;;;13.36;55.28
52777;BME280;38656;54.260;20.822;2023-03-03T03:16:24;101071.75;;;12.26;60.36
52777;BME280;38656;54.260;20.822;2023-03-03T03:18:50;101075.41;;;13.25;59.55
52777;BME280;38656;54.260;20.822;2023-03-03T03:21:17;101074.53;;;12.70;60.35
52777;BME280;38656;54.260;20.822;2023-03-03T03:23:44;101061.31;;;13.57;61.35
52777;BME280;38656;54.260;20.822;2023-03-03T03:26:10;101072.78;;;12.01;61.18
52777;BME280;38656;54.260;20.822;2023-03-03T03:28:37;101068.16;;;12.27;63.55
52777;BME280;38656;54.260;20.822;2023-03-03T03:31:04;101060.44;;;12.58;64.10
52777;BME280;38656;54.260;20.822;2023-03-03T03:33:31;101074.91;;;13.43;59.33
52777;BME280;38656;54.260;20.822;2023-03-03T03:35:57;101068.47;;;12.00;60.93
52777;BME280;38656;54.260;20.822;2023-03-03T03:38:24;101060.94;;;12.63;62.38
52777;BME280;38656;54.260;20.822;2023-03-03T03:40:52;101059.38;;;13.16;57.72
52777;BME280;38656;54.260;20.822;2023-03-03T03:43:19;101052.44;;;13.47;57.08
52777;BME280;38656;54.260;20.822;2023-03-03T03:45:45;101043.19;;;12.86;59.62
52777;BME280;38656;54.260;20.822;2023-03-03T03:48:12;101040.47;;;11.84;64.81
52777;BME280;38656;54.260;20.822;2023-03-03T03:50:38;101034.69;;;12.49;63.05
52777;BME280;38656;54.260;20.822;2023-03-03T03:53:05;101035.13;;;12.09;66.77
52777;BME280;38656;54.260;20.822;2023-03-03T03:55:32;101037.94;;;12.41;61.74
52777;BME280;38656;54.260;20.822;2023-03-03T03:57:58;101023.69;;;12.87;62.06
52777;BME280;38656;54.260;20.822;2023-03-03T04:00:25;101029.13;;;13.18;64.56
52777;BME280;38656;54.260;20.822;2023-03-03T04:02:51;101026.25;;;11.63;64.89
52777;BME280;38656;54.260;20.822;2023-03-03T04:05:18;101030.75;;;12.98;62.03
52777;BME280;38656;54.260;20.822;2023-03-03T04:07:44;101023.72;;;12.65;61.66
52777;BME280;38656;54.260;20.822;2023-03-03T04:10:11;101026.94;;;12.80;64.00
52777;BME280;38656;54.260;20.822;2023-03-03T04:12:37;101018.59;;;13.60;62.44
52777;BME280;38656;54.260;20.822;2023-03-03T04:15:08;101018.69;;;12.39;58.93
52777;BME280;38656;54.260;20.822;2023-03-03T04:17:35;101006.97;;;12.64;63.56
52777;BME280;38656;54.260;20.822;2023-03-03T04:20:02;101008.41;;;13.12;62.49
52777;BME280;38656;54.260;20.822;2023-03-03T04:22:29;101003.97;;;12.57;64.86
52777;BME280;38656;54.260;20.822;2023-03-03T04:25:03;101018.06;;;13.13;65.43
52777;BME280;38656;54.260;20.822;2023-03-03T04:27:34;101015.66;;;14.06;59.86
52777;BME280;38656;54.260;20.822;2023-03-03T04:30:02;101010.22;;;13.44;63.51
52777;BME280;38656;54.260;20.822;2023-03-03T04:32:29;101008.97;;;14.11;60.08
52777;BME280;38656;54.260;20.822;2023-03-03T04:34:56;101011.56;;;12.28;63.36
52777;BME280;38656;54.260;20.822;2023-03-03T04:37:22;101002.72;;;12.84;62.39
52777;BME280;38656;54.260;20.822;2023-03-03T04:39:48;101004.69;;;12.60;65.69
52777;BME280;38656;54.260;20.822;2023-03-03T04:42:14;101005.66;;;12.47;65.73
52777;BME280;38656;54.260;20.822;2023-03-03T04:44:41;101005.84;;;13.54;62.76
52777;BME280;38656;54.260;20.822;2023-03-03T04:47:07;100997.97;;;12.33;67.10
52777;BME280;38656;54.260;20.822;2023-03-03T04:49:33;100997.22;;;12.65;65.94
52777;BME280;38656;54.260;20.822;2023-03-03T04:51:59;100998.91;;;13.09;63.16
52777;BME280;38656;54.260;20.822;2023-03-03T04:54:25;100994.19;;;13.67;62.36
52777;BME280;38656;54.260;20.822;2023-03-03T04:56:51;100985.53;;;13.65;62.38
52777;BME280;38656;54.260;20.822;2023-03-03T04:59:17;100987.13;;;12.47;65.49
52777;BME280;38656;54.260;20.822;2023-03-03T05:01:44;100989.56;;;12.16;64.93
52777;BME280;38656;54.260;20.822;2023-03-03T05:04:11;100982.53;;;13.37;63.52
52777;BME280;38656;54.260;20.822;2023-03-03T05:06:37;100981.97;;;13.01;62.26
52777;BME280;38656;54.260;20.822;2023-03-03T05:09:04;100987.09;;;13.46;62.71
52777;BME280;38656;54.260;20.822;2023-03-03T05:11:30;100981.06;;;13.44;64.59
52777;BME280;38656;54.260;20.822;2023-03-03T05:13:57;100986.88;;;12.50;63.69
52777;BME280;38656;54.260;20.822;2023-03-03T05:16:23;100983.63;;;13.02;65.00
52777;BME280;38656;54.260;20.822;2023-03-03T05:18:50;100969.28;;;13.79;61.40
52777;BME280;38656;54.260;20.822;2023-03-03T05:21:16;100976.00;;;13.41;62.00
52777;BME280;38656;54.260;20.822;2023-03-03T05:23:42;100983.78;;;13.21;63.38
52777;BME280;38656;54.260;20.822;2023-03-03T05:26:08;100970.81;;;12.74;64.07
52777;BME280;38656;54.260;20.822;2023-03-03T05:28:34;100974.44;;;14.52;58.63
52777;BME280;38656;54.260;20.822;2023-03-03T05:31:01;100968.91;;;13.93;61.79
52777;BME280;38656;54.260;20.822;2023-03-03T05:33:27;100958.16;;;13.43;65.74
52777;BME280;38656;54.260;20.822;2023-03-03T05:35:54;100966.50;;;13.38;62.63
52777;BME280;38656;54.260;20.822;2023-03-03T05:38:21;100960.84;;;12.55;64.98
52777;BME280;38656;54.260;20.822;2023-03-03T05:40:47;100965.28;;;13.10;65.48
52777;BME280;38656;54.260;20.822;2023-03-03T05:43:14;100950.88;;;12.91;67.40
52777;BME280;38656;54.260;20.822;2023-03-03T05:45:40;100951.63;;;12.82;68.88
52777;BME280;38656;54.260;20.822;2023-03-03T05:48:06;100955.81;;;12.52;66.77
52777;BME280;38656;54.260;20.822;2023-03-03T05:50:33;100950.38;;;12.65;70.23
52777;BME280;38656;54.260;20.822;2023-03-03T05:52:59;100954.91;;;12.86;65.55
52777;BME280;38656;54.260;20.822;2023-03-03T05:55:25;100952.81;;;12.89;68.90
52777;BME280;38656;54.260;20.822;2023-03-03T05:57:53;100957.28;;;12.34;71.49
52777;BME280;38656;54.260;20.822;2023-03-03T06:00:20;100958.53;;;13.06;69.47
52777;BME280;38656;54.260;20.822;2023-03-03T06:02:46;100958.81;;;12.91;72.30
52777;BME280;38656;54.260;20.822;2023-03-03T06:05:12;100961.13;;;13.50;66.65
52777;BME280;38656;54.260;20.822;2023-03-03T06:07:39;100971.25;;;13.23;67.70
52777;BME280;38656;54.260;20.822;2023-03-03T06:10:06;100968.91;;;13.41;63.86
52777;BME280;38656;54.260;20.822;2023-03-03T06:12:33;100976.75;;;14.26;62.91
52777;BME280;38656;54.260;20.822;2023-03-03T06:14:59;100982.44;;;13.59;63.94
52777;BME280;38656;54.260;20.822;2023-03-03T06:17:25;100981.22;;;13.94;66.18
52777;BME280;38656;54.260;20.822;2023-03-03T06:19:52;100986.28;;;14.79;57.53
52777;BME280;38656;54.260;20.822;2023-03-03T06:22:19;100990.53;;;15.11;56.13
52777;BME280;38656;54.260;20.822;2023-03-03T06:24:45;101006.75;;;14.57;59.91
52777;BME280;38656;54.260;20.822;2023-03-03T06:27:11;100999.19;;;14.12;59.08
52777;BME280;38656;54.260;20.822;2023-03-03T06:29:37;100979.97;;;16.15;54.14
52777;BME280;38656;54.260;20.822;2023-03-03T06:32:04;100992.56;;;14.27;58.01
52777;BME280;38656;54.260;20.822;2023-03-03T06:34:30;100997.31;;;13.72;59.64
52777;BME280;38656;54.260;20.822;2023-03-03T06:36:56;100997.91;;;15.56;57.21
52777;BME280;38656;54.260;20.822;2023-03-03T06:39:22;101009.81;;;14.43;57.04
52777;BME280;38656;54.260;20.822;2023-03-03T06:41:49;101011.81;;;15.01;57.94
52777;BME280;38656;54.260;20.822;2023-03-03T06:44:15;101014.66;;;16.05;54.27
52777;BME280;38656;54.260;20.822;2023-03-03T06:46:41;101027.44;;;16.02;53.78
52777;BME280;38656;54.260;20.822;2023-03-03T06:49:07;101038.97;;;15.63;55.24
52777;BME280;38656;54.260;20.822;2023-03-03T06:51:36;101027.47;;;15.14;56.16
52777;BME280;38656;54.260;20.822;2023-03-03T06:54:16;101017.78;;;14.93;55.46
52777;BME280;38656;54.260;20.822;2023-03-03T06:56:44;101013.75;;;14.89;56.68
52777;BME280;38656;54.260;20.822;2023-03-03T06:59:20;101025.91;;;14.82;58.22
52777;BME280;38656;54.260;20.822;2023-03-03T07:01:50;101036.13;;;14.46;59.84
52777;BME280;38656;54.260;20.822;2023-03-03T07:04:28;101028.88;;;14.17;60.10
52777;BME280;38656;54.260;20.822;2023-03-03T07:06:57;101027.22;;;15.46;55.44
52777;BME280;38656;54.260;20.822;2023-03-03T07:09:26;101033.81;;;13.58;64.41
52777;BME280;38656;54.260;20.822;2023-03-03T07:12:09;101039.03;;;14.12;61.36
52777;BME280;38656;54.260;20.822;2023-03-03T07:14:42;101033.19;;;14.49;60.45
52777;BME280;38656;54.260;20.822;2023-03-03T07:17:19;101032.56;;;13.41;63.64
52777;BME280;38656;54.260;20.822;2023-03-03T07:19:46;101019.78;;;12.91;68.81
52777;BME280;38656;54.260;20.822;2023-03-03T07:22:14;101020.53;;;14.01;62.19
52777;BME280;38656;54.260;20.822;2023-03-03T07:24:42;101020.41;;;14.74;62.24
52777;BME280;38656;54.260;20.822;2023-03-03T07:29:54;100995.81;;;14.91;61.76
52777;BME280;38656;54.260;20.822;2023-03-03T07:34:55;100997.25;;;14.14;61.08
52777;BME280;38656;54.260;20.822;2023-03-03T07:39:53;100999.16;;;14.02;60.85
52777;BME280;38656;54.260;20.822;2023-03-03T07:42:27;100990.63;;;15.38;60.65
52777;BME280;38656;54.260;20.822;2023-03-03T07:45:00;100985.09;;;15.99;56.66
52777;BME280;38656;54.260;20.822;2023-03-03T07:47:33;100987.28;;;14.37;61.45
52777;BME280;38656;54.260;20.822;2023-03-03T07:50:14;100991.66;;;15.18;59.60
52777;BME280;38656;54.260;20.822;2023-03-03T07:52:58;100984.03;;;15.82;59.38
52777;BME280;38656;54.260;20.822;2023-03-03T07:55:35;100991.34;;;15.60;56.33
52777;BME280;38656;54.260;20.822;2023-03-03T08:04:28;100973.97;;;15.56;54.35
52777;BME280;38656;54.260;20.822;2023-03-03T08:06:59;100983.00;;;16.30;53.96
52777;BME280;38656;54.260;20.822;2023-03-03T08:09:36;100985.00;;;14.63;61.17
52777;BME280;38656;54.260;20.822;2023-03-03T08:14:36;100994.03;;;13.89;66.45
52777;BME280;38656;54.260;20.822;2023-03-03T08:17:20;100991.78;;;14.46;59.38
52777;BME280;38656;54.260;20.822;2023-03-03T08:19:50;100974.97;;;15.35;57.02
52777;BME280;38656;54.260;20.822;2023-03-03T08:22:34;100977.06;;;15.32;58.09
52777;BME280;38656;54.260;20.822;2023-03-03T08:25:01;100970.09;;;15.01;61.29
52777;BME280;38656;54.260;20.822;2023-03-03T08:27:27;100981.84;;;14.08;59.05
52777;BME280;38656;54.260;20.822;2023-03-03T08:29:53;100971.47;;;15.45;56.95
52777;BME280;38656;54.260;20.822;2023-03-03T08:32:20;100971.16;;;15.57;57.37
52777;BME280;38656;54.260;20.822;2023-03-03T08:34:46;100986.56;;;13.52;62.30
52777;BME280;38656;54.260;20.822;2023-03-03T08:37:12;100981.28;;;14.95;57.96
52777;BME280;38656;54.260;20.822;2023-03-03T08:39:38;100987.72;;;13.06;62.55
52777;BME280;38656;54.260;20.822;2023-03-03T08:42:04;100982.94;;;14.96;57.58
52777;BME280;38656;54.260;20.822;2023-03-03T08:44:31;100990.41;;;14.52;64.82
52777;BME280;38656;54.260;20.822;2023-03-03T08:46:57;100991.78;;;13.42;62.98
52777;BME280;38656;54.260;20.822;2023-03-03T08:49:23;100992.09;;;14.22;60.77
52777;BME280;38656;54.260;20.822;2023-03-03T08:51:49;100990.16;;;13.93;64.36
52777;BME280;38656;54.260;20.822;2023-03-03T08:54:17;100991.88;;;13.52;64.14
52777;BME280;38656;54.260;20.822;2023-03-03T08:56:43;100990.75;;;14.78;63.95
52777;BME280;38656;54.260;20.822;2023-03-03T08:59:09;100986.09;;;16.25;57.32
52777;BME280;38656;54.260;20.822;2023-03-03T09:01:37;100984.06;;;16.47;54.75
52777;BME280;38656;54.260;20.822;2023-03-03T09:04:03;100989.78;;;16.24;56.97
52777;BME280;38656;54.260;20.822;2023-03-03T09:06:29;100989.94;;;15.36;56.14
52777;BME280;38656;54.260;20.822;2023-03-03T09:08:55;100983.97;;;16.01;57.14
52777;BME280;38656;54.260;20.822;2023-03-03T09:11:25;100986.88;;;14.92;58.60
52777;BME280;38656;54.260;20.822;2023-03-03T09:13:58;100982.03;;;16.31;54.47
52777;BME280;38656;54.260;20.822;2023-03-03T09:16:30;100969.69;;;16.58;53.59
52777;BME280;38656;54.260;20.822;2023-03-03T09:21:42;100966.09;;;16.67;53.24
52777;BME280;38656;54.260;20.822;2023-03-03T09:24:21;100974.56;;;15.30;55.30
52777;BME280;38656;54.260;20.822;2023-03-03T09:26:49;100972.56;;;15.52;56.36
52777;BME280;38656;54.260;20.822;2023-03-03T09:29:35;100973.56;;;14.42;57.47
52777;BME280;38656;54.260;20.822;2023-03-03T09:34:51;100956.88;;;15.58;54.46
52777;BME280;38656;54.260;20.822;2023-03-03T09:39:56;100956.53;;;15.71;55.68
52777;BME280;38656;54.260;20.822;2023-03-03T09:47:55;100952.06;;;15.82;52.90
52777;BME280;38656;54.260;20.822;2023-03-03T09:50:33;100956.84;;;16.43;50.61
52777;BME280;38656;54.260;20.822;2023-03-03T09:58:41;100952.91;;;15.72;52.85
52777;BME280;38656;54.260;20.822;2023-03-03T10:20:38;100944.22;;;17.36;49.16
52777;BME280;38656;54.260;20.822;2023-03-03T10:23:19;100929.66;;;17.82;49.64
52777;BME280;38656;54.260;20.822;2023-03-03T10:26:07;100935.50;;;17.51;48.25
52777;BME280;38656;54.260;20.822;2023-03-03T10:31:48;100925.72;;;20.02;45.75
52777;BME280;38656;54.260;20.822;2023-03-03T10:48:07;100917.94;;;20.24;44.60
52777;BME280;38656;54.260;20.822;2023-03-03T10:51:12;100917.34;;;20.37;44.54
52777;BME280;38656;54.260;20.822;2023-03-03T10:59:35;100919.84;;;19.42;42.84
52777;BME280;38656;54.260;20.822;2023-03-03T11:02:28;100904.13;;;23.40;35.86
52777;BME280;38656;54.260;20.822;2023-03-03T11:05:31;100912.16;;;20.04;37.12
52777;BME280;38656;54.260;20.822;2023-03-03T11:08:16;100906.63;;;22.92;33.42
52777;BME280;38656;54.260;20.822;2023-03-03T11:18:33;100897.47;;;24.06;32.23
52777;BME280;38656;54.260;20.822;2023-03-03T11:21:25;100897.91;;;26.81;28.71
52777;BME280;38656;54.260;20.822;2023-03-03T11:24:09;100902.66;;;22.30;32.28
52777;BME280;38656;54.260;20.822;2023-03-03T11:43:40;100881.63;;;22.76;34.95
52777;BME280;38656;54.260;20.822;2023-03-03T11:46:15;100876.97;;;23.13;33.49
52777;BME280;38656;54.260;20.822;2023-03-03T11:54:12;100891.81;;;19.78;36.41
52777;BME280;38656;54.260;20.822;2023-03-03T11:56:46;100884.13;;;19.67;37.21
52777;BME280;38656;54.260;20.822;2023-03-03T12:05:29;100877.09;;;19.66;38.20
52777;BME280;38656;54.260;20.822;2023-03-03T12:08:27;100879.19;;;19.31;37.85
52777;BME280;38656;54.260;20.822;2023-03-03T12:16:55;100881.25;;;19.85;37.11
52777;BME280;38656;54.260;20.822;2023-03-03T12:41:51;100857.41;;;19.90;36.62
52777;BME280;38656;54.260;20.822;2023-03-03T12:47:15;100844.16;;;19.40;36.64
52777;BME280;38656;54.260;20.822;2023-03-03T12:55:52;100864.13;;;19.38;36.35
52777;BME280;38656;54.260;20.822;2023-03-03T13:01:13;100861.47;;;17.62;37.47
52777;BME280;38656;54.260;20.822;2023-03-03T13:03:54;100852.84;;;17.76;38.30
52777;BME280;38656;54.260;20.822;2023-03-03T13:06:27;100846.22;;;20.49;35.12
52777;BME280;38656;54.260;20.822;2023-03-03T13:19:59;100843.22;;;18.84;36.07
52777;BME280;38656;54.260;20.822;2023-03-03T13:27:55;100834.69;;;21.54;33.97
52777;BME280;38656;54.260;20.822;2023-03-03T13:30:32;100840.44;;;20.98;33.94
52777;BME280;38656;54.260;20.822;2023-03-03T13:33:07;100845.28;;;21.18;33.22
52777;BME280;38656;54.260;20.822;2023-03-03T13:38:46;100839.09;;;18.89;34.88
52777;BME280;38656;54.260;20.822;2023-03-03T13:52:27;100821.69;;;19.97;34.07
52777;BME280;38656;54.260;20.822;2023-03-03T13:55:03;100819.88;;;19.42;35.46
52777;BME280;38656;54.260;20.822;2023-03-03T14:05:56;100808.41;;;17.06;37.55
52777;BME280;38656;54.260;20.822;2023-03-03T14:11:05;100815.31;;;17.43;37.56
52777;BME280;38656;54.260;20.822;2023-03-03T14:19:20;100815.31;;;17.86;34.97
52777;BME280;38656;54.260;20.822;2023-03-03T14:25:04;100807.88;;;17.98;35.42
52777;BME280;38656;54.260;20.822;2023-03-03T14:28:27;100817.44;;;17.74;36.31
52777;BME280;38656;54.260;20.822;2023-03-03T14:30:46;100798.25;;;19.04;34.40
52777;BME280;38656;54.260;20.822;2023-03-03T14:41:13;100791.84;;;16.94;37.06
52777;BME280;38656;54.260;20.822;2023-03-03T14:43:56;100792.19;;;16.99;37.55
52777;BME280;38656;54.260;20.822;2023-03-03T14:48:56;100780.81;;;18.01;37.12
52777;BME280;38656;54.260;20.822;2023-03-03T14:53:52;100776.19;;;16.99;38.28
52777;BME280;38656;54.260;20.822;2023-03-03T14:56:28;100771.94;;;17.49;38.43
52777;BME280;38656;54.260;20.822;2023-03-03T14:59:22;100767.22;;;17.86;37.47
52777;BME280;38656;54.260;20.822;2023-03-03T15:04:46;100760.28;;;16.09;39.68
52777;BME280;38656;54.260;20.822;2023-03-03T15:07:26;100748.53;;;17.86;37.80
52777;BME280;38656;54.260;20.822;2023-03-03T15:09:56;100745.19;;;16.80;38.79
52777;BME280;38656;54.260;20.822;2023-03-03T15:12:34;100754.09;;;16.27;38.72
52777;BME280;38656;54.260;20.822;2023-03-03T15:17:37;100742.00;;;17.80;36.38
52777;BME280;38656;54.260;20.822;2023-03-03T15:20:31;100733.38;;;17.95;36.85
52777;BME280;38656;54.260;20.822;2023-03-03T15:25:58;100724.38;;;18.29;36.40
52777;BME280;38656;54.260;20.822;2023-03-03T15:28:51;100723.28;;;17.80;37.72
52777;BME280;38656;54.260;20.822;2023-03-03T15:34:32;100718.44;;;17.76;38.41
52777;BME280;38656;54.260;20.822;2023-03-03T15:37:23;100717.53;;;17.42;37.73
52777;BME280;38656;54.260;20.822;2023-03-03T15:42:36;100709.00;;;18.06;37.55
52777;BME280;38656;54.260;20.822;2023-03-03T15:54:09;100709.06;;;17.21;39.05
52777;BME280;38656;54.260;20.822;2023-03-03T15:57:03;100703.66;;;18.22;38.58
52777;BME280;38656;54.260;20.822;2023-03-03T15:59:56;100694.56;;;17.82;40.07
52777;BME280;38656;54.260;20.822;2023-03-03T16:02:54;100714.84;;;15.65;42.37
52777;BME280;38656;54.260;20.822;2023-03-03T16:05:42;100707.28;;;16.42;42.85
52777;BME280;38656;54.260;20.822;2023-03-03T16:17:00;100700.53;;;15.48;44.04
52777;BME280;38656;54.260;20.822;2023-03-03T16:28:08;100683.38;;;16.59;42.47
52777;BME280;38656;54.260;20.822;2023-03-03T16:31:06;100667.66;;;16.03;43.45
52777;BME280;38656;54.260;20.822;2023-03-03T16:44:33;100650.13;;;16.97;42.12
52777;BME280;38656;54.260;20.822;2023-03-03T17:06:45;100641.41;;;17.30;42.20
52777;BME280;38656;54.260;20.822;2023-03-03T17:15:06;100633.06;;;17.33;41.75
52777;BME280;38656;54.260;20.822;2023-03-03T17:25:57;100626.13;;;16.71;42.11
52777;BME280;38656;54.260;20.822;2023-03-03T17:31:15;100631.66;;;15.99;43.20
52777;BME280;38656;54.260;20.822;2023-03-03T17:45:20;100626.97;;;17.06;41.49
52777;BME280;38656;54.260;20.822;2023-03-03T17:51:04;100623.25;;;17.50;41.26
52777;BME280;38656;54.260;20.822;2023-03-03T18:27:31;100603.50;;;15.97;44.18
52777;BME280;38656;54.260;20.822;2023-03-03T18:30:22;100596.25;;;16.07;44.54
52777;BME280;38656;54.260;20.822;2023-03-03T18:35:23;100567.63;;;16.35;43.56
52777;BME280;38656;54.260;20.822;2023-03-03T18:37:50;100581.25;;;14.13;46.10
52777;BME280;38656;54.260;20.822;2023-03-03T18:40:31;100568.66;;;17.20;42.77
52777;BME280;38656;54.260;20.822;2023-03-03T18:42:59;100559.78;;;16.68;42.34
52777;BME280;38656;54.260;20.822;2023-03-03T18:45:45;100558.53;;;15.93;44.12
52777;BME280;38656;54.260;20.822;2023-03-03T18:48:13;100546.94;;;16.29;43.08
52777;BME280;38656;54.260;20.822;2023-03-03T18:50:41;100543.13;;;16.05;44.19
52777;BME280;38656;54.260;20.822;2023-03-03T18:55:57;100525.91;;;17.03;43.33
52777;BME280;38656;54.260;20.822;2023-03-03T19:12:08;100519.16;;;15.61;45.57
52777;BME280;38656;54.260;20.822;2023-03-03T19:14:39;100521.06;;;15.87;43.45
52777;BME280;38656;54.260;20.822;2023-03-03T19:20:04;100512.44;;;15.93;45.60
52777;BME280;38656;54.260;20.822;2023-03-03T19:25:28;100504.28;;;14.41;47.55
52777;BME280;38656;54.260;20.822;2023-03-03T19:31:06;100498.41;;;14.75;46.51
52777;BME280;38656;54.260;20.822;2023-03-03T19:33:50;100485.09;;;15.91;45.35
52777;BME280;38656;54.260;20.822;2023-03-03T19:52:58;100446.88;;;13.92;47.35
52777;BME280;38656;54.260;20.822;2023-03-03T19:58:44;100430.66;;;14.97;46.21
52777;BME280;38656;54.260;20.822;2023-03-03T20:04:39;100426.75;;;13.52;46.99
52777;BME280;38656;54.260;20.822;2023-03-03T20:07:26;100427.16;;;13.67;48.27
52777;BME280;38656;54.260;20.822;2023-03-03T20:27:05;100406.88;;;14.04;50.39